Capitol Logistics 978

Operating for DHL



LFPG
Charles de Gaulle
Paris, FR
LFMN
Nice-Côte d'Azur Airport
Nice, FR

Activity Log

Date Flight Route Aircraft Duration
04/19/2022 CPX978 LATR5Z LATRA LAMUT UTUVA LERGA LIQID UY30 LATAM UY22 NISAR NISA7R A30F 1h 25m
02/15/2022 CPX978 LATR5Z LATRA LAMUT UTUVA LERGA LIQID UY30 LATAM UY22 NISAR NISA7R A30F 1h 29m

Route Details

Aircraft Information
Group: European Fleet
Types: A30F,A31F,B738
Route Data
Demand: M
Distance: 375nm
Duration: 1h 35m
Recm'd Route: LATR5Z LATRA LAMUT UTUVA LERGA LIQID UY30 LATAM UY22 NISAR NISA7R
Origin Wx: LFPG 242130Z 26005KT CAVOK 13/09 Q1014 NOSIG
Dest. Wx: LFMN 242130Z 31004KT 9999 FEW060 SCT100 BKN130 20/16 Q1008 NOSIG
Notes:

Financial History
Total Freight: 134,616lbs
Average Load: 67,308lbs/flt
Fuel Used: 32,068lbs
Avg. Fuel Used: 16,034lbs/flt
Fuel Expense: $15,706
Avg. Fuel Expense: $7,853
Avg. Fuel Cost: $0.50/lbs
Total Gross Income: $295,392
Pilot Pay: $378
Total Expenses: $36,285
Total Revenue: $242,918
Average Revenue: $147,695.88